sensor_id;sensor_type;location;lat;lon;timestamp;pressure;altitude;pressure_sealevel;temperature;humidity
18790;BME280;9523;42.650;23.386;2023-03-23T00:00:57;94611.47;;;6.20;100.00
18790;BME280;9523;42.650;23.386;2023-03-23T00:03:24;94618.53;;;6.19;100.00
18790;BME280;9523;42.650;23.386;2023-03-23T00:05:54;94613.53;;;6.18;100.00
18790;BME280;9523;42.650;23.386;2023-03-23T00:08:28;94624.56;;;6.25;100.00
18790;BME280;9523;42.650;23.386;2023-03-23T00:10:56;94616.72;;;6.25;100.00
18790;BME280;9523;42.650;23.386;2023-03-23T00:13:23;94616.19;;;6.28;100.00
18790;BME280;9523;42.650;23.386;2023-03-23T00:15:50;94608.31;;;6.23;100.00
18790;BME280;9523;42.650;23.386;2023-03-23T00:18:18;94616.44;;;6.31;100.00
18790;BME280;9523;42.650;23.386;2023-03-23T00:20:48;94619.84;;;6.27;100.00
18790;BME280;9523;42.650;23.386;2023-03-23T00:23:17;94624.31;;;6.31;100.00
18790;BME280;9523;42.650;23.386;2023-03-23T00:25:50;94629.81;;;6.25;100.00
18790;BME280;9523;42.650;23.386;2023-03-23T00:28:20;94622.72;;;6.15;100.00
18790;BME280;9523;42.650;23.386;2023-03-23T00:30:56;94631.88;;;6.18;100.00
18790;BME280;9523;42.650;23.386;2023-03-23T00:33:23;94623.47;;;6.10;100.00
18790;BME280;9523;42.650;23.386;2023-03-23T00:35:52;94594.31;;;5.82;100.00
18790;BME280;9523;42.650;23.386;2023-03-23T00:38:20;94630.56;;;6.10;100.00
18790;BME280;9523;42.650;23.386;2023-03-23T00:40:47;94625.03;;;6.06;100.00
18790;BME280;9523;42.650;23.386;2023-03-23T00:43:14;94640.78;;;6.11;100.00
18790;BME280;9523;42.650;23.386;2023-03-23T00:45:43;94629.75;;;6.09;100.00
18790;BME280;9523;42.650;23.386;2023-03-23T00:48:14;94633.22;;;6.20;100.00
18790;BME280;9523;42.650;23.386;2023-03-23T00:50:41;94645.50;;;6.20;100.00
18790;BME280;9523;42.650;23.386;2023-03-23T00:53:08;94636.59;;;6.16;100.00
18790;BME280;9523;42.650;23.386;2023-03-23T00:55:35;94638.41;;;6.10;100.00
18790;BME280;9523;42.650;23.386;2023-03-23T00:58:02;94639.19;;;6.05;100.00
18790;BME280;9523;42.650;23.386;2023-03-23T01:00:29;94636.56;;;6.05;100.00
18790;BME280;9523;42.650;23.386;2023-03-23T01:02:57;94627.66;;;6.01;100.00
18790;BME280;9523;42.650;23.386;2023-03-23T01:05:24;94634.19;;;5.89;100.00
18790;BME280;9523;42.650;23.386;2023-03-23T01:07:57;94637.56;;;5.89;100.00
18790;BME280;9523;42.650;23.386;2023-03-23T01:10:25;94639.34;;;5.79;100.00
18790;BME280;9523;42.650;23.386;2023-03-23T01:12:53;94633.31;;;5.73;100.00
18790;BME280;9523;42.650;23.386;2023-03-23T01:15:21;94636.19;;;5.72;100.00
18790;BME280;9523;42.650;23.386;2023-03-23T01:17:47;94640.09;;;5.74;100.00
18790;BME280;9523;42.650;23.386;2023-03-23T01:20:16;94630.97;;;5.82;100.00
18790;BME280;9523;42.650;23.386;2023-03-23T01:22:43;94626.53;;;5.77;100.00
18790;BME280;9523;42.650;23.386;2023-03-23T01:25:11;94622.56;;;5.75;100.00
18790;BME280;9523;42.650;23.386;2023-03-23T01:27:39;94620.75;;;5.75;100.00
18790;BME280;9523;42.650;23.386;2023-03-23T01:30:07;94621.84;;;5.84;100.00
18790;BME280;9523;42.650;23.386;2023-03-23T01:32:35;94623.44;;;5.95;100.00
18790;BME280;9523;42.650;23.386;2023-03-23T01:35:02;94617.72;;;6.03;100.00
18790;BME280;9523;42.650;23.386;2023-03-23T01:37:31;94609.34;;;6.06;100.00
18790;BME280;9523;42.650;23.386;2023-03-23T01:40:04;94598.31;;;6.09;100.00
18790;BME280;9523;42.650;23.386;2023-03-23T01:42:33;94606.72;;;6.22;100.00
18790;BME280;9523;42.650;23.386;2023-03-23T01:45:26;94612.50;;;6.24;100.00
18790;BME280;9523;42.650;23.386;2023-03-23T01:48:01;94612.25;;;6.30;100.00
18790;BME280;9523;42.650;23.386;2023-03-23T01:50:36;94615.69;;;6.36;100.00
18790;BME280;9523;42.650;23.386;2023-03-23T01:53:08;94611.22;;;6.36;100.00
18790;BME280;9523;42.650;23.386;2023-03-23T01:55:38;94609.38;;;6.42;100.00
18790;BME280;9523;42.650;23.386;2023-03-23T01:58:06;94601.50;;;6.42;100.00
18790;BME280;9523;42.650;23.386;2023-03-23T02:00:34;94609.13;;;6.48;100.00
18790;BME280;9523;42.650;23.386;2023-03-23T02:03:03;94589.97;;;6.38;100.00
18790;BME280;9523;42.650;23.386;2023-03-23T02:05:33;94602.31;;;6.47;100.00
18790;BME280;9523;42.650;23.386;2023-03-23T02:08:03;94595.47;;;6.41;100.00
18790;BME280;9523;42.650;23.386;2023-03-23T02:10:32;94607.81;;;6.56;100.00
18790;BME280;9523;42.650;23.386;2023-03-23T02:13:02;94606.00;;;6.56;100.00
18790;BME280;9523;42.650;23.386;2023-03-23T02:15:35;94607.03;;;6.60;100.00
18790;BME280;9523;42.650;23.386;2023-03-23T02:18:08;94608.59;;;6.67;100.00
18790;BME280;9523;42.650;23.386;2023-03-23T02:20:52;94599.94;;;6.66;100.00
18790;BME280;9523;42.650;23.386;2023-03-23T02:23:40;94603.63;;;6.75;100.00
18790;BME280;9523;42.650;23.386;2023-03-23T02:26:28;94592.63;;;6.68;100.00
18790;BME280;9523;42.650;23.386;2023-03-23T02:29:29;94593.13;;;6.70;100.00
18790;BME280;9523;42.650;23.386;2023-03-23T02:32:12;94604.66;;;6.59;100.00
18790;BME280;9523;42.650;23.386;2023-03-23T02:34:45;94606.75;;;6.47;100.00
18790;BME280;9523;42.650;23.386;2023-03-23T02:37:17;94606.50;;;6.38;100.00
18790;BME280;9523;42.650;23.386;2023-03-23T02:39:51;94608.84;;;6.25;100.00
18790;BME280;9523;42.650;23.386;2023-03-23T02:42:22;94599.16;;;6.20;100.00
18790;BME280;9523;42.650;23.386;2023-03-23T02:44:52;94618.78;;;6.18;100.00
18790;BME280;9523;42.650;23.386;2023-03-23T02:47:23;94615.13;;;6.08;100.00
18790;BME280;9523;42.650;23.386;2023-03-23T02:49:54;94620.56;;;5.92;100.00
18790;BME280;9523;42.650;23.386;2023-03-23T02:52:24;94620.78;;;5.80;100.00
18790;BME280;9523;42.650;23.386;2023-03-23T02:54:53;94630.69;;;5.73;100.00
18790;BME280;9523;42.650;23.386;2023-03-23T02:57:22;94633.81;;;5.65;100.00
18790;BME280;9523;42.650;23.386;2023-03-23T02:59:51;94628.28;;;5.56;100.00
18790;BME280;9523;42.650;23.386;2023-03-23T03:02:21;94640.06;;;5.59;100.00
18790;BME280;9523;42.650;23.386;2023-03-23T03:04:55;94649.41;;;5.50;100.00
18790;BME280;9523;42.650;23.386;2023-03-23T03:07:58;94655.94;;;5.37;100.00
18790;BME280;9523;42.650;23.386;2023-03-23T03:10:31;94654.31;;;5.31;100.00
18790;BME280;9523;42.650;23.386;2023-03-23T03:13:05;94656.09;;;5.20;100.00
18790;BME280;9523;42.650;23.386;2023-03-23T03:15:40;94663.09;;;5.15;100.00
18790;BME280;9523;42.650;23.386;2023-03-23T03:18:13;94634.03;;;5.06;100.00
18790;BME280;9523;42.650;23.386;2023-03-23T03:20:49;94664.44;;;5.22;100.00
18790;BME280;9523;42.650;23.386;2023-03-23T03:23:21;94664.97;;;5.19;100.00
18790;BME280;9523;42.650;23.386;2023-03-23T03:25:49;94667.31;;;5.16;100.00
18790;BME280;9523;42.650;23.386;2023-03-23T03:28:17;94661.75;;;5.07;100.00
18790;BME280;9523;42.650;23.386;2023-03-23T03:30:49;94666.94;;;4.97;100.00
18790;BME280;9523;42.650;23.386;2023-03-23T03:33:19;94674.16;;;4.85;100.00
18790;BME280;9523;42.650;23.386;2023-03-23T03:35:53;94665.19;;;4.76;100.00
18790;BME280;9523;42.650;23.386;2023-03-23T03:38:21;94656.97;;;4.62;100.00
18790;BME280;9523;42.650;23.386;2023-03-23T03:40:48;94664.13;;;4.72;100.00
18790;BME280;9523;42.650;23.386;2023-03-23T03:43:15;94654.63;;;4.66;100.00
18790;BME280;9523;42.650;23.386;2023-03-23T03:45:42;94660.81;;;4.55;100.00
18790;BME280;9523;42.650;23.386;2023-03-23T03:48:10;94655.06;;;4.53;100.00
18790;BME280;9523;42.650;23.386;2023-03-23T03:50:37;94655.38;;;4.56;100.00
18790;BME280;9523;42.650;23.386;2023-03-23T03:53:05;94661.97;;;4.64;100.00
18790;BME280;9523;42.650;23.386;2023-03-23T03:55:32;94666.94;;;4.65;100.00
18790;BME280;9523;42.650;23.386;2023-03-23T03:58:01;94646.50;;;4.62;100.00
18790;BME280;9523;42.650;23.386;2023-03-23T04:00:28;94658.13;;;4.77;100.00
18790;BME280;9523;42.650;23.386;2023-03-23T04:02:55;94662.69;;;4.91;100.00
18790;BME280;9523;42.650;23.386;2023-03-23T04:05:22;94653.03;;;4.92;100.00
18790;BME280;9523;42.650;23.386;2023-03-23T04:07:50;94659.03;;;4.92;100.00
18790;BME280;9523;42.650;23.386;2023-03-23T04:10:20;94659.09;;;5.02;100.00
18790;BME280;9523;42.650;23.386;2023-03-23T04:12:47;94649.38;;;4.98;100.00
18790;BME280;9523;42.650;23.386;2023-03-23T04:15:15;94658.63;;;5.10;100.00
18790;BME280;9523;42.650;23.386;2023-03-23T04:17:42;94652.59;;;5.10;100.00
18790;BME280;9523;42.650;23.386;2023-03-23T04:20:09;94633.22;;;5.01;100.00
18790;BME280;9523;42.650;23.386;2023-03-23T04:22:41;94663.63;;;5.12;100.00
18790;BME280;9523;42.650;23.386;2023-03-23T04:25:18;94656.25;;;5.04;100.00
18790;BME280;9523;42.650;23.386;2023-03-23T04:27:49;94653.31;;;4.95;100.00
18790;BME280;9523;42.650;23.386;2023-03-23T04:30:19;94653.31;;;4.95;100.00
18790;BME280;9523;42.650;23.386;2023-03-23T04:32:48;94661.25;;;5.10;100.00
18790;BME280;9523;42.650;23.386;2023-03-23T04:35:18;94653.19;;;5.22;100.00
18790;BME280;9523;42.650;23.386;2023-03-23T04:37:46;94662.88;;;5.21;100.00
18790;BME280;9523;42.650;23.386;2023-03-23T04:40:13;94657.63;;;5.21;100.00
18790;BME280;9523;42.650;23.386;2023-03-23T04:42:42;94656.13;;;5.31;100.00
18790;BME280;9523;42.650;23.386;2023-03-23T04:45:17;94655.69;;;5.44;100.00
18790;BME280;9523;42.650;23.386;2023-03-23T04:47:47;94647.81;;;5.39;100.00
18790;BME280;9523;42.650;23.386;2023-03-23T04:50:21;94654.69;;;5.55;100.00
18790;BME280;9523;42.650;23.386;2023-03-23T04:52:50;94667.34;;;5.73;100.00
18790;BME280;9523;42.650;23.386;2023-03-23T04:55:23;94673.38;;;5.79;100.00
18790;BME280;9523;42.650;23.386;2023-03-23T04:57:53;94675.03;;;5.95;100.00
18790;BME280;9523;42.650;23.386;2023-03-23T05:00:23;94666.94;;;6.06;100.00
18790;BME280;9523;42.650;23.386;2023-03-23T05:02:49;94673.28;;;6.16;100.00
18790;BME280;9523;42.650;23.386;2023-03-23T05:05:18;94667.00;;;6.22;100.00
18790;BME280;9523;42.650;23.386;2023-03-23T05:07:46;94674.88;;;6.27;100.00
18790;BME280;9523;42.650;23.386;2023-03-23T05:10:13;94684.03;;;6.29;100.00
18790;BME280;9523;42.650;23.386;2023-03-23T05:12:41;94682.19;;;6.30;100.00
18790;BME280;9523;42.650;23.386;2023-03-23T05:15:10;94683.53;;;6.32;100.00
18790;BME280;9523;42.650;23.386;2023-03-23T05:17:39;94673.06;;;6.32;100.00
18790;BME280;9523;42.650;23.386;2023-03-23T05:20:11;94685.66;;;6.40;100.00
18790;BME280;9523;42.650;23.386;2023-03-23T05:22:39;94682.25;;;6.50;100.00
18790;BME280;9523;42.650;23.386;2023-03-23T05:25:07;94687.50;;;6.55;100.00
18790;BME280;9523;42.650;23.386;2023-03-23T05:27:39;94691.69;;;6.51;100.00
18790;BME280;9523;42.650;23.386;2023-03-23T05:30:08;94693.75;;;6.49;100.00
18790;BME280;9523;42.650;23.386;2023-03-23T05:32:38;94694.03;;;6.57;100.00
18790;BME280;9523;42.650;23.386;2023-03-23T05:35:05;94697.44;;;6.53;100.00
18790;BME280;9523;42.650;23.386;2023-03-23T05:37:32;94700.34;;;6.61;100.00
18790;BME280;9523;42.650;23.386;2023-03-23T05:39:59;94700.09;;;6.63;100.00
18790;BME280;9523;42.650;23.386;2023-03-23T05:42:27;94712.16;;;6.59;100.00
18790;BME280;9523;42.650;23.386;2023-03-23T05:44:53;94710.31;;;6.70;100.00
18790;BME280;9523;42.650;23.386;2023-03-23T05:47:20;94709.03;;;6.72;100.00
18790;BME280;9523;42.650;23.386;2023-03-23T05:49:48;94709.56;;;6.79;100.00
18790;BME280;9523;42.650;23.386;2023-03-23T05:52:16;94704.84;;;6.76;100.00
18790;BME280;9523;42.650;23.386;2023-03-23T05:54:43;94711.63;;;6.77;100.00
18790;BME280;9523;42.650;23.386;2023-03-23T05:57:10;94711.13;;;6.80;100.00
18790;BME280;9523;42.650;23.386;2023-03-23T05:59:37;94715.84;;;6.93;100.00
18790;BME280;9523;42.650;23.386;2023-03-23T06:02:04;94668.91;;;6.67;100.00
18790;BME280;9523;42.650;23.386;2023-03-23T06:04:31;94717.41;;;6.94;100.00
18790;BME280;9523;42.650;23.386;2023-03-23T06:07:00;94717.41;;;7.09;100.00
18790;BME280;9523;42.650;23.386;2023-03-23T06:09:27;94721.59;;;7.21;100.00
18790;BME280;9523;42.650;23.386;2023-03-23T06:11:54;94722.66;;;7.35;100.00
18790;BME280;9523;42.650;23.386;2023-03-23T06:14:21;94723.72;;;7.39;100.00
18790;BME280;9523;42.650;23.386;2023-03-23T06:16:48;94722.88;;;7.53;100.00
18790;BME280;9523;42.650;23.386;2023-03-23T06:19:16;94726.28;;;7.64;100.00
18790;BME280;9523;42.650;23.386;2023-03-23T06:21:43;94707.88;;;7.69;100.00
18790;BME280;9523;42.650;23.386;2023-03-23T06:24:11;94725.91;;;8.01;100.00
18790;BME280;9523;42.650;23.386;2023-03-23T06:26:39;94728.81;;;7.99;100.00
18790;BME280;9523;42.650;23.386;2023-03-23T06:29:08;94717.53;;;7.99;100.00
18790;BME280;9523;42.650;23.386;2023-03-23T06:34:05;94724.25;;;8.20;100.00
18790;BME280;9523;42.650;23.386;2023-03-23T06:36:34;94721.88;;;8.29;100.00
18790;BME280;9523;42.650;23.386;2023-03-23T06:39:02;94730.78;;;8.38;100.00
18790;BME280;9523;42.650;23.386;2023-03-23T06:41:31;94728.19;;;8.28;100.00
18790;BME280;9523;42.650;23.386;2023-03-23T06:43:58;94729.22;;;8.37;100.00
18790;BME280;9523;42.650;23.386;2023-03-23T06:46:26;94725.75;;;8.41;100.00
18790;BME280;9523;42.650;23.386;2023-03-23T06:48:54;94736.28;;;8.46;100.00
18790;BME280;9523;42.650;23.386;2023-03-23T06:51:22;94742.81;;;8.49;100.00
18790;BME280;9523;42.650;23.386;2023-03-23T06:53:49;94719.25;;;8.24;100.00
18790;BME280;9523;42.650;23.386;2023-03-23T06:56:16;94741.84;;;8.35;100.00
18790;BME280;9523;42.650;23.386;2023-03-23T06:58:44;94742.41;;;8.32;100.00
18790;BME280;9523;42.650;23.386;2023-03-23T07:01:12;94747.38;;;8.33;100.00
18790;BME280;9523;42.650;23.386;2023-03-23T07:03:40;94739.75;;;8.32;100.00
18790;BME280;9523;42.650;23.386;2023-03-23T07:06:08;94747.66;;;8.32;100.00
18790;BME280;9523;42.650;23.386;2023-03-23T07:08:35;94744.72;;;8.28;100.00
18790;BME280;9523;42.650;23.386;2023-03-23T07:11:02;94745.53;;;8.29;100.00
18790;BME280;9523;42.650;23.386;2023-03-23T07:13:30;94751.56;;;8.24;100.00
18790;BME280;9523;42.650;23.386;2023-03-23T07:15:59;94726.13;;;8.15;100.00
18790;BME280;9523;42.650;23.386;2023-03-23T07:18:27;94741.84;;;8.30;100.00
18790;BME280;9523;42.650;23.386;2023-03-23T07:20:55;94742.16;;;8.18;100.00
18790;BME280;9523;42.650;23.386;2023-03-23T07:23:22;94743.72;;;8.19;100.00
18790;BME280;9523;42.650;23.386;2023-03-23T07:25:48;94741.59;;;8.31;100.00
18790;BME280;9523;42.650;23.386;2023-03-23T07:28:16;94751.50;;;8.44;100.00
18790;BME280;9523;42.650;23.386;2023-03-23T07:30:43;94749.09;;;8.53;100.00
18790;BME280;9523;42.650;23.386;2023-03-23T07:33:11;94743.28;;;8.61;100.00
18790;BME280;9523;42.650;23.386;2023-03-23T07:35:38;94729.34;;;8.61;100.00
18790;BME280;9523;42.650;23.386;2023-03-23T07:38:06;94737.53;;;8.59;100.00
18790;BME280;9523;42.650;23.386;2023-03-23T07:40:33;94760.28;;;8.79;100.00
18790;BME280;9523;42.650;23.386;2023-03-23T07:43:01;94739.81;;;8.71;100.00
18790;BME280;9523;42.650;23.386;2023-03-23T07:45:29;94761.00;;;8.89;100.00
18790;BME280;9523;42.650;23.386;2023-03-23T07:47:56;94760.66;;;9.01;100.00
18790;BME280;9523;42.650;23.386;2023-03-23T07:50:25;94765.91;;;9.06;100.00
18790;BME280;9523;42.650;23.386;2023-03-23T07:52:54;94769.47;;;9.20;100.00
18790;BME280;9523;42.650;23.386;2023-03-23T07:55:21;94770.22;;;9.26;100.00
18790;BME280;9523;42.650;23.386;2023-03-23T07:57:50;94760.19;;;9.28;100.00
18790;BME280;9523;42.650;23.386;2023-03-23T08:00:19;94767.56;;;9.31;100.00
18790;BME280;9523;42.650;23.386;2023-03-23T08:02:50;94762.19;;;9.41;100.00
18790;BME280;9523;42.650;23.386;2023-03-23T08:05:18;94768.41;;;9.55;100.00
18790;BME280;9523;42.650;23.386;2023-03-23T08:07:49;94769.13;;;9.61;100.00
18790;BME280;9523;42.650;23.386;2023-03-23T08:10:18;94773.53;;;9.70;100.00
18790;BME280;9523;42.650;23.386;2023-03-23T08:12:51;94777.13;;;9.79;100.00
18790;BME280;9523;42.650;23.386;2023-03-23T08:15:19;94768.63;;;9.87;100.00
18790;BME280;9523;42.650;23.386;2023-03-23T08:17:47;94774.28;;;10.00;100.00
18790;BME280;9523;42.650;23.386;2023-03-23T08:20:14;94759.44;;;10.09;100.00
18790;BME280;9523;42.650;23.386;2023-03-23T08:22:52;94780.91;;;10.26;100.00
18790;BME280;9523;42.650;23.386;2023-03-23T08:25:21;94773.38;;;10.38;100.00
18790;BME280;9523;42.650;23.386;2023-03-23T08:27:48;94771.22;;;10.40;100.00
18790;BME280;9523;42.650;23.386;2023-03-23T08:30:17;94771.63;;;10.52;100.00
18790;BME280;9523;42.650;23.386;2023-03-23T08:32:47;94765.13;;;10.63;100.00
18790;BME280;9523;42.650;23.386;2023-03-23T08:35:16;94762.31;;;10.78;100.00
18790;BME280;9523;42.650;23.386;2023-03-23T08:37:43;94769.53;;;11.10;100.00
18790;BME280;9523;42.650;23.386;2023-03-23T08:40:14;94770.50;;;11.65;99.22
18790;BME280;9523;42.650;23.386;2023-03-23T08:42:45;94761.59;;;12.07;92.68
18790;BME280;9523;42.650;23.386;2023-03-23T08:45:15;94772.88;;;13.03;81.57
18790;BME280;9523;42.650;23.386;2023-03-23T08:47:43;94765.69;;;14.15;75.32
18790;BME280;9523;42.650;23.386;2023-03-23T08:50:13;94763.13;;;15.06;63.40
18790;BME280;9523;42.650;23.386;2023-03-23T08:52:41;94745.28;;;15.84;60.98
18790;BME280;9523;42.650;23.386;2023-03-23T08:55:13;94761.59;;;16.67;57.53
18790;BME280;9523;42.650;23.386;2023-03-23T08:57:40;94758.50;;;17.48;54.81
18790;BME280;9523;42.650;23.386;2023-03-23T09:00:13;94762.47;;;17.83;48.06
18790;BME280;9523;42.650;23.386;2023-03-23T09:02:43;94757.88;;;17.71;47.67
18790;BME280;9523;42.650;23.386;2023-03-23T09:05:13;94761.63;;;18.15;46.55
18790;BME280;9523;42.650;23.386;2023-03-23T09:07:41;94760.44;;;18.49;46.74
18790;BME280;9523;42.650;23.386;2023-03-23T09:10:09;94760.38;;;18.70;45.84
18790;BME280;9523;42.650;23.386;2023-03-23T09:12:42;94747.00;;;18.58;43.69
18790;BME280;9523;42.650;23.386;2023-03-23T09:15:11;94752.75;;;18.96;43.06
18790;BME280;9523;42.650;23.386;2023-03-23T09:17:42;94751.47;;;19.42;42.86
18790;BME280;9523;42.650;23.386;2023-03-23T09:20:11;94756.72;;;19.27;43.26
18790;BME280;9523;42.650;23.386;2023-03-23T09:22:39;94758.34;;;18.79;43.33
18790;BME280;9523;42.650;23.386;2023-03-23T09:25:07;94756.06;;;18.08;44.66
18790;BME280;9523;42.650;23.386;2023-03-23T09:27:34;94758.22;;;17.82;45.61
18790;BME280;9523;42.650;23.386;2023-03-23T09:30:04;94755.91;;;17.93;45.23
18790;BME280;9523;42.650;23.386;2023-03-23T09:32:32;94760.75;;;18.23;45.87
18790;BME280;9523;42.650;23.386;2023-03-23T09:35:00;94751.25;;;18.59;45.42
18790;BME280;9523;42.650;23.386;2023-03-23T09:37:28;94751.63;;;19.21;44.15
18790;BME280;9523;42.650;23.386;2023-03-23T09:39:55;94746.41;;;19.81;42.31
18790;BME280;9523;42.650;23.386;2023-03-23T09:42:32;94741.44;;;20.10;40.96
18790;BME280;9523;42.650;23.386;2023-03-23T09:45:13;94732.41;;;20.62;39.35
18790;BME280;9523;42.650;23.386;2023-03-23T09:47:49;94735.19;;;20.50;39.22
18790;BME280;9523;42.650;23.386;2023-03-23T09:50:21;94742.88;;;19.92;39.44
18790;BME280;9523;42.650;23.386;2023-03-23T09:52:54;94729.53;;;20.24;37.98
18790;BME280;9523;42.650;23.386;2023-03-23T09:55:22;94706.81;;;20.65;38.33
18790;BME280;9523;42.650;23.386;2023-03-23T09:57:52;94724.78;;;21.15;38.81
18790;BME280;9523;42.650;23.386;2023-03-23T10:00:26;94722.75;;;20.92;38.77
18790;BME280;9523;42.650;23.386;2023-03-23T10:03:00;94730.47;;;21.29;38.48
18790;BME280;9523;42.650;23.386;2023-03-23T10:05:31;94727.91;;;21.55;36.18
18790;BME280;9523;42.650;23.386;2023-03-23T10:07:59;94722.28;;;21.41;37.36
18790;BME280;9523;42.650;23.386;2023-03-23T10:10:35;94726.34;;;21.35;37.60
18790;BME280;9523;42.650;23.386;2023-03-23T10:13:12;94729.69;;;21.28;37.24
18790;BME280;9523;42.650;23.386;2023-03-23T10:15:44;94727.00;;;20.93;38.59
18790;BME280;9523;42.650;23.386;2023-03-23T10:18:16;94719.59;;;21.41;35.77
18790;BME280;9523;42.650;23.386;2023-03-23T10:20:48;94709.84;;;21.33;35.65
18790;BME280;9523;42.650;23.386;2023-03-23T10:23:51;94712.00;;;21.27;37.31
18790;BME280;9523;42.650;23.386;2023-03-23T10:26:33;94712.44;;;21.48;36.57
18790;BME280;9523;42.650;23.386;2023-03-23T10:29:12;94716.19;;;21.63;36.54
18790;BME280;9523;42.650;23.386;2023-03-23T10:31:44;94705.66;;;21.54;37.24
18790;BME280;9523;42.650;23.386;2023-03-23T10:34:17;94703.25;;;22.11;35.65
18790;BME280;9523;42.650;23.386;2023-03-23T10:36:56;94706.00;;;22.14;35.87
18790;BME280;9523;42.650;23.386;2023-03-23T10:39:29;94720.34;;;22.22;35.07
18790;BME280;9523;42.650;23.386;2023-03-23T10:42:05;94695.19;;;22.11;35.09
18790;BME280;9523;42.650;23.386;2023-03-23T10:44:36;94702.19;;;21.54;35.31
18790;BME280;9523;42.650;23.386;2023-03-23T10:47:08;94700.09;;;20.74;37.01
18790;BME280;9523;42.650;23.386;2023-03-23T10:49:39;94692.69;;;19.74;38.06
18790;BME280;9523;42.650;23.386;2023-03-23T10:52:16;94702.91;;;19.99;38.02
18790;BME280;9523;42.650;23.386;2023-03-23T10:54:50;94691.66;;;20.72;37.32
18790;BME280;9523;42.650;23.386;2023-03-23T10:57:23;94701.16;;;21.20;36.92
18790;BME280;9523;42.650;23.386;2023-03-23T10:59:50;94706.50;;;21.97;36.80
18790;BME280;9523;42.650;23.386;2023-03-23T11:02:20;94705.44;;;22.51;34.71
18790;BME280;9523;42.650;23.386;2023-03-23T11:05:01;94692.25;;;22.65;35.49
18790;BME280;9523;42.650;23.386;2023-03-23T11:07:32;94702.69;;;22.21;34.85
18790;BME280;9523;42.650;23.386;2023-03-23T11:10:07;94698.88;;;20.87;36.43
18790;BME280;9523;42.650;23.386;2023-03-23T11:12:35;94697.72;;;21.04;35.99
18790;BME280;9523;42.650;23.386;2023-03-23T11:15:29;94690.59;;;21.69;34.99
18790;BME280;9523;42.650;23.386;2023-03-23T11:18:01;94697.28;;;21.79;33.85
18790;BME280;9523;42.650;23.386;2023-03-23T11:20:29;94683.00;;;21.94;34.16
18790;BME280;9523;42.650;23.386;2023-03-23T11:23:01;94674.13;;;22.35;33.39
18790;BME280;9523;42.650;23.386;2023-03-23T11:25:34;94666.34;;;22.79;32.08
18790;BME280;9523;42.650;23.386;2023-03-23T11:28:14;94669.03;;;22.79;32.19
18790;BME280;9523;42.650;23.386;2023-03-23T11:30:41;94674.19;;;21.74;33.81
18790;BME280;9523;42.650;23.386;2023-03-23T11:33:10;94663.06;;;21.95;33.44
18790;BME280;9523;42.650;23.386;2023-03-23T11:35:43;94668.31;;;22.11;33.71
18790;BME280;9523;42.650;23.386;2023-03-23T11:38:16;94650.94;;;22.76;33.07
18790;BME280;9523;42.650;23.386;2023-03-23T11:40:47;94660.44;;;23.30;31.67
18790;BME280;9523;42.650;23.386;2023-03-23T11:43:19;94661.56;;;22.43;33.32
18790;BME280;9523;42.650;23.386;2023-03-23T11:45:53;94651.53;;;22.66;33.87
18790;BME280;9523;42.650;23.386;2023-03-23T11:48:27;94642.19;;;23.13;32.66
18790;BME280;9523;42.650;23.386;2023-03-23T11:51:01;94648.22;;;23.69;31.57
18790;BME280;9523;42.650;23.386;2023-03-23T11:53:41;94630.59;;;23.75;31.73
18790;BME280;9523;42.650;23.386;2023-03-23T11:56:15;94645.75;;;23.54;31.84
18790;BME280;9523;42.650;23.386;2023-03-23T11:58:45;94646.41;;;23.44;33.00
18790;BME280;9523;42.650;23.386;2023-03-23T12:01:25;94639.88;;;23.81;32.06
18790;BME280;9523;42.650;23.386;2023-03-23T12:04:07;94624.63;;;23.56;32.37
18790;BME280;9523;42.650;23.386;2023-03-23T12:06:44;94631.56;;;23.97;32.26
18790;BME280;9523;42.650;23.386;2023-03-23T12:09:23;94631.38;;;23.76;31.99
18790;BME280;9523;42.650;23.386;2023-03-23T12:12:16;94639.69;;;23.60;32.21
18790;BME280;9523;42.650;23.386;2023-03-23T12:14:53;94639.66;;;23.57;33.25
18790;BME280;9523;42.650;23.386;2023-03-23T12:17:32;94634.97;;;23.91;30.97
18790;BME280;9523;42.650;23.386;2023-03-23T12:20:17;94625.78;;;23.95;30.28
18790;BME280;9523;42.650;23.386;2023-03-23T12:22:55;94635.34;;;23.49;31.45
18790;BME280;9523;42.650;23.386;2023-03-23T12:25:47;94627.97;;;23.82;31.85
18790;BME280;9523;42.650;23.386;2023-03-23T12:28:26;94628.22;;;24.11;30.68
18790;BME280;9523;42.650;23.386;2023-03-23T12:31:02;94619.16;;;23.89;30.01
18790;BME280;9523;42.650;23.386;2023-03-23T12:33:41;94623.56;;;23.64;30.52
18790;BME280;9523;42.650;23.386;2023-03-23T12:36:22;94597.75;;;23.63;30.43
18790;BME280;9523;42.650;23.386;2023-03-23T12:39:25;94612.50;;;23.39;31.58
18790;BME280;9523;42.650;23.386;2023-03-23T12:42:03;94626.59;;;23.62;31.16
18790;BME280;9523;42.650;23.386;2023-03-23T12:44:43;94613.47;;;23.98;32.12
18790;BME280;9523;42.650;23.386;2023-03-23T12:47:20;94614.34;;;24.56;29.90
18790;BME280;9523;42.650;23.386;2023-03-23T12:49:53;94616.94;;;24.46;31.45
18790;BME280;9523;42.650;23.386;2023-03-23T12:52:26;94606.03;;;24.24;30.66
18790;BME280;9523;42.650;23.386;2023-03-23T12:55:00;94598.75;;;24.32;29.91
18790;BME280;9523;42.650;23.386;2023-03-23T12:57:34;94604.41;;;24.74;29.92
18790;BME280;9523;42.650;23.386;2023-03-23T13:00:07;94596.50;;;24.41;30.10
18790;BME280;9523;42.650;23.386;2023-03-23T13:02:43;94609.47;;;24.25;30.26
18790;BME280;9523;42.650;23.386;2023-03-23T13:05:24;94601.34;;;23.77;30.69
18790;BME280;9523;42.650;23.386;2023-03-23T13:07:56;94596.25;;;23.65;31.06
18790;BME280;9523;42.650;23.386;2023-03-23T13:10:29;94589.91;;;23.88;31.49
18790;BME280;9523;42.650;23.386;2023-03-23T13:12:57;94591.06;;;24.34;31.17
18790;BME280;9523;42.650;23.386;2023-03-23T13:15:33;94570.25;;;24.35;30.68
18790;BME280;9523;42.650;23.386;2023-03-23T13:18:10;94589.63;;;24.51;30.75
18790;BME280;9523;42.650;23.386;2023-03-23T13:20:59;94581.41;;;24.98;30.49
18790;BME280;9523;42.650;23.386;2023-03-23T13:23:33;94576.03;;;24.98;29.52